Wetterdaten: aktuell Donnerstag, 25.04.2019 15:30
Datum Zeit Temp. A. Feuchte A. Luftdruck Regen Wind Richtung Richtung Taupunkt Windchill Windben Empfang
25.04.2019 15:30 20,0 C 50 % 1006,8 hPa 0,0 l/m 13,5 km/h (3 Bft) SO 132 9,3 C 17,6 C 33,0 km/h (5 Bft) 100 %
25.04.2019 15:20 19,9 C 49 % 1007,0 hPa 0,0 l/m 16,7 km/h (3 Bft) S-SW 210 8,9 C 16,7 C 37,1 km/h (5 Bft) 100 %
25.04.2019 15:10 20,2 C 49 % 1007,1 hPa 0,0 l/m 13,2 km/h (3 Bft) S-SW 193 9,1 C 17,9 C 35,0 km/h (5 Bft) 100 %
25.04.2019 15:00 20,1 C 48 % 1006,8 hPa 0,0 l/m 12,1 km/h (2 Bft) S-SO 168 8,7 C 18,1 C 30,9 km/h (5 Bft) 98 %
25.04.2019 14:50 19,9 C 50 % 1006,8 hPa 0,0 l/m 14,9 km/h (3 Bft) S-SW 211 9,2 C 17,2 C 30,9 km/h (5 Bft) 98 %
25.04.2019 14:40 19,3 C 52 % 1006,8 hPa 0,0 l/m 12,3 km/h (3 Bft) S-SW 195 9,2 C 17,1 C 33,0 km/h (5 Bft) 99 %
25.04.2019 14:30 19,2 C 51 % 1006,8 hPa 0,0 l/m 13,2 km/h (3 Bft) S-SO 160 8,8 C 16,8 C 28,8 km/h (4 Bft) 100 %
25.04.2019 14:20 19,7 C 51 % 1006,6 hPa 0,0 l/m 11,9 km/h (2 Bft) S 178 9,3 C 17,7 C 28,8 km/h (4 Bft) 98 %
25.04.2019 14:10 19,2 C 51 % 1006,7 hPa 0,0 l/m 10,9 km/h (2 Bft) S 184 8,8 C 17,5 C 26,8 km/h (4 Bft) 99 %
25.04.2019 14:00 18,9 C 51 % 1006,8 hPa 0,0 l/m 11,3 km/h (2 Bft) SW 223 8,5 C 17,0 C 26,8 km/h (4 Bft) 100 %
25.04.2019 13:50 18,6 C 51 % 1007,0 hPa 0,0 l/m 10,0 km/h (2 Bft) S 169 8,3 C 17,1 C 28,8 km/h (4 Bft) 99 %
25.04.2019 13:40 18,4 C 51 % 1007,2 hPa 0,0 l/m 17,0 km/h (3 Bft) W-SW 242 8,1 C 14,8 C 41,2 km/h (6 Bft) 99 %
25.04.2019 13:30 18,7 C 51 % 1007,1 hPa 0,0 l/m 11,4 km/h (2 Bft) S-SW 201 8,4 C 16,7 C 28,8 km/h (4 Bft) 99 %
25.04.2019 13:20 18,3 C 52 % 1007,4 hPa 0,0 l/m 14,8 km/h (3 Bft) S 190 8,3 C 15,2 C 41,2 km/h (6 Bft) 99 %
25.04.2019 13:10 17,7 C 54 % 1007,5 hPa 0,0 l/m 15,1 km/h (3 Bft) S 180 8,3 C 14,4 C 35,0 km/h (5 Bft) 99 %
25.04.2019 13:00 17,7 C 55 % 1007,6 hPa 0,0 l/m 11,2 km/h (2 Bft) S 178 8,5 C 15,7 C 28,8 km/h (4 Bft) 100 %
25.04.2019 12:50 17,7 C 54 % 1007,5 hPa 0,0 l/m 9,0 km/h (2 Bft) S-SW 202 8,3 C 16,5 C 20,6 km/h (4 Bft) 99 %
25.04.2019 12:40 17,7 C 54 % 1007,5 hPa 0,0 l/m 9,2 km/h (2 Bft) O 80 8,3 C 16,4 C 26,8 km/h (4 Bft) 99 %
25.04.2019 12:30 17,6 C 55 % 1007,5 hPa 0,0 l/m 11,8 km/h (2 Bft) SO 134 8,5 C 15,3 C 33,0 km/h (5 Bft) 99 %
25.04.2019 12:20 17,7 C 59 % 1007,3 hPa 0,0 l/m 9,6 km/h (2 Bft) O-SO 119 9,6 C 16,3 C 24,7 km/h (4 Bft) 100 %
25.04.2019 12:10 17,3 C 59 % 1007,5 hPa 0,0 l/m 11,0 km/h (2 Bft) N-NO 22 9,2 C 15,3 C 26,8 km/h (4 Bft) 100 %
25.04.2019 12:00 16,6 C 62 % 1007,6 hPa 0,0 l/m 12,5 km/h (3 Bft) SW 214 9,3 C 13,9 C 30,9 km/h (5 Bft) 99 %
25.04.2019 11:50 15,9 C 63 % 1007,4 hPa 0,0 l/m 8,9 km/h (2 Bft) S-SW 195 8,9 C 14,6 C 20,6 km/h (4 Bft) 100 %
25.04.2019 11:40 15,6 C 65 % 1007,3 hPa 0,0 l/m 7,3 km/h (2 Bft) S-SW 210 9,0 C 15,1 C 22,7 km/h (4 Bft) 99 %
25.04.2019 11:30 15,3 C 66 % 1007,7 hPa 0,0 l/m 7,1 km/h (2 Bft) SW 231 9,0 C 14,9 C 18,5 km/h (3 Bft) 99 %
25.04.2019 11:20 15,2 C 65 % 1007,8 hPa 0,0 l/m 12,6 km/h (3 Bft) S-SW 208 8,7 C 12,3 C 26,8 km/h (4 Bft) 100 %
25.04.2019 11:10 15,2 C 67 % 1007,8 hPa 0,0 l/m 9,2 km/h (2 Bft) SW 219 9,1 C 13,7 C 24,7 km/h (4 Bft) 99 %
25.04.2019 11:00 14,9 C 68 % 1007,3 hPa 0,0 l/m 8,3 km/h (2 Bft) SO 135 9,0 C 13,8 C 18,5 km/h (3 Bft) 98 %
25.04.2019 10:50 14,7 C 68 % 1007,1 hPa 0,0 l/m 6,7 km/h (2 Bft) S-SW 208 8,9 C 14,5 C 22,7 km/h (4 Bft) 98 %
25.04.2019 10:40 14,3 C 68 % 1007,2 hPa 0,0 l/m 9,6 km/h (2 Bft) S-SO 147 8,5 C 12,5 C 28,8 km/h (4 Bft) 99 %
25.04.2019 10:30 14,2 C 69 % 1007,3 hPa 0,0 l/m 10,8 km/h (2 Bft) S 180 8,6 C 11,9 C 26,8 km/h (4 Bft) 100 %
25.04.2019 10:20 14,2 C 68 % 1007,2 hPa 0,0 l/m 8,7 km/h (2 Bft) S 185 8,4 C 12,9 C 24,7 km/h (4 Bft) 99 %
25.04.2019 10:10 14,3 C 69 % 1007,2 hPa 0,0 l/m 8,3 km/h (2 Bft) O-SO 106 8,7 C 13,2 C 24,7 km/h (4 Bft) 99 %
25.04.2019 10:00 14,3 C 69 % 1007,2 hPa 0,0 l/m 10,9 km/h (2 Bft) S-SW 209 8,7 C 11,9 C 26,8 km/h (4 Bft) 99 %
25.04.2019 09:50 13,8 C 70 % 1007,1 hPa 0,0 l/m 8,5 km/h (2 Bft) S 179 8,4 C 12,6 C 24,7 km/h (4 Bft) 100 %
25.04.2019 09:40 13,3 C 73 % 1007,1 hPa 0,0 l/m 8,3 km/h (2 Bft) S-SW 198 8,6 C 12,1 C 28,8 km/h (4 Bft) 99 %
25.04.2019 09:30 13,3 C 73 % 1007,1 hPa 0,0 l/m 11,3 km/h (2 Bft) S 189 8,6 C 10,6 C 33,0 km/h (5 Bft) 100 %
25.04.2019 09:21 13,1 C 76 % 1006,8 hPa 0,0 l/m 7,7 km/h (2 Bft) S 177 9,0 C 12,3 C 24,7 km/h (4 Bft) 100 %
25.04.2019 09:10 12,7 C 78 % 1006,8 hPa 0,0 l/m 8,2 km/h (2 Bft) S-SW 197 9,0 C 11,6 C 24,7 km/h (4 Bft) 97 %
25.04.2019 09:00 12,2 C 81 % 1006,8 hPa 0,0 l/m 7,3 km/h (2 Bft) SW 221 9,0 C 11,6 C 22,7 km/h (4 Bft) 100 %
25.04.2019 08:50 11,8 C 84 % 1006,8 hPa 0,0 l/m 7,1 km/h (2 Bft) S 189 9,2 C 11,3 C 18,5 km/h (3 Bft) 100 %
25.04.2019 08:40 11,4 C 85 % 1006,6 hPa 0,0 l/m 7,4 km/h (2 Bft) S 178 9,0 C 10,7 C 22,7 km/h (4 Bft) 99 %
25.04.2019 08:30 11,0 C 87 % 1006,5 hPa 0,0 l/m 5,7 km/h (1 Bft) O-SO 117 8,9 C 11,0 C 16,5 km/h (3 Bft) 99 %
25.04.2019 08:20 10,6 C 89 % 1006,5 hPa 0,0 l/m 4,8 km/h (1 Bft) SO 133 8,9 C 10,6 C 16,5 km/h (3 Bft) 98 %
25.04.2019 08:10 10,2 C 90 % 1006,2 hPa 0,0 l/m 4,5 km/h (1 Bft) SO 136 8,6 C 10,2 C 18,5 km/h (3 Bft) 99 %
25.04.2019 08:00 9,9 C 91 % 1006,2 hPa 0,0 l/m 3,7 km/h (1 Bft) SO 130 8,5 C 9,9 C 14,4 km/h (3 Bft) 99 %
25.04.2019 07:50 9,7 C 91 % 1006,2 hPa 0,0 l/m 3,6 km/h (1 Bft) SO 126 8,3 C 9,7 C 14,4 km/h (3 Bft) 100 %
25.04.2019 07:40 9,4 C 92 % 1006,2 hPa 0,0 l/m 2,3 km/h (1 Bft) SO 143 8,2 C 9,4 C 14,4 km/h (3 Bft) 98 %
25.04.2019 07:30 9,3 C 92 % 1006,3 hPa 0,0 l/m 2,9 km/h (1 Bft) S-SW 196 8,1 C 9,3 C 14,4 km/h (3 Bft) 99 %
25.04.2019 07:20 9,1 C 93 % 1006,3 hPa 0,0 l/m 1,6 km/h (1 Bft) S 173 8,0 C 9,1 C 12,4 km/h (3 Bft) 99 %
25.04.2019 07:10 8,9 C 93 % 1006,3 hPa 0,0 l/m 3,1 km/h (1 Bft) S-SW 197 7,8 C 8,9 C 12,4 km/h (3 Bft) 99 %
25.04.2019 07:00 8,9 C 93 % 1006,3 hPa 0,0 l/m 2,8 km/h (1 Bft) O-NO 77 7,8 C 8,9 C 10,3 km/h (2 Bft) 99 %
25.04.2019 06:50 8,9 C 93 % 1006,1 hPa 0,0 l/m 2,5 km/h (1 Bft) S-SO 160 7,8 C 8,9 C 14,4 km/h (3 Bft) 98 %
25.04.2019 06:40 8,9 C 93 % 1006,1 hPa 0,0 l/m 3,0 km/h (1 Bft) S 177 7,8 C 8,9 C 10,3 km/h (2 Bft) 99 %
25.04.2019 06:30 8,9 C 93 % 1006,1 hPa 0,0 l/m 2,2 km/h (1 Bft) S 182 7,8 C 8,9 C 14,4 km/h (3 Bft) 100 %
25.04.2019 06:20 9,0 C 93 % 1005,8 hPa 0,0 l/m 3,2 km/h (1 Bft) S 179 7,9 C 9,0 C 14,4 km/h (3 Bft) 99 %
25.04.2019 06:10 9,1 C 93 % 1005,9 hPa 0,0 l/m 2,3 km/h (1 Bft) S 178 8,0 C 9,1 C 12,4 km/h (3 Bft) 100 %
25.04.2019 06:00 9,1 C 93 % 1005,8 hPa 0,0 l/m 2,4 km/h (1 Bft) W-SW 253 8,0 C 9,1 C 10,3 km/h (2 Bft) 98 %
25.04.2019 05:50 9,2 C 93 % 1005,7 hPa 0,0 l/m 2,0 km/h (1 Bft) S-SW 202 8,1 C 9,2 C 8,2 km/h (2 Bft) 100 %
25.04.2019 05:40 9,3 C 93 % 1005,6 hPa 0,0 l/m 0,3 km/h (0 Bft) S-SO 166 8,2 C 9,3 C 6,2 km/h (2 Bft) 99 %
25.04.2019 05:30 9,4 C 93 % 1005,5 hPa 0,0 l/m 0,6 km/h (0 Bft) SO 140 8,3 C 9,4 C 6,2 km/h (2 Bft) 98 %
25.04.2019 05:20 9,6 C 93 % 1005,8 hPa 0,0 l/m 1,9 km/h (1 Bft) S-SO 167 8,5 C 9,6 C 8,2 km/h (2 Bft) 99 %
25.04.2019 05:10 9,7 C 93 % 1005,8 hPa 0,0 l/m 2,4 km/h (1 Bft) S 182 8,6 C 9,7 C 10,3 km/h (2 Bft) 98 %
25.04.2019 05:00 9,8 C 93 % 1005,9 hPa 0,0 l/m 1,1 km/h (1 Bft) S 182 8,7 C 9,8 C 6,2 km/h (2 Bft) 99 %
25.04.2019 04:50 9,9 C 93 % 1005,9 hPa 0,0 l/m 2,0 km/h (1 Bft) S-SW 192 8,8 C 9,9 C 10,3 km/h (2 Bft) 100 %
25.04.2019 04:40 10,1 C 93 % 1005,8 hPa 0,0 l/m 2,4 km/h (1 Bft) O-SO 107 9,0 C 10,1 C 10,3 km/h (2 Bft) 100 %
25.04.2019 04:30 10,1 C 93 % 1005,5 hPa 0,0 l/m 1,4 km/h (1 Bft) S 176 9,0 C 10,1 C 6,2 km/h (2 Bft) 99 %
25.04.2019 04:20 10,2 C 93 % 1005,4 hPa 0,0 l/m 0,9 km/h (0 Bft) S 179 9,1 C 10,2 C 6,2 km/h (2 Bft) 100 %
25.04.2019 04:10 10,3 C 92 % 1005,5 hPa 0,0 l/m 1,9 km/h (1 Bft) S 175 9,1 C 10,3 C 10,3 km/h (2 Bft) 100 %
25.04.2019 04:00 10,6 C 92 % 1005,3 hPa 0,0 l/m 1,4 km/h (1 Bft) S 186 9,4 C 10,6 C 8,2 km/h (2 Bft) 100 %
25.04.2019 03:50 10,7 C 92 % 1005,3 hPa 0,0 l/m 1,0 km/h (0 Bft) SO 145 9,5 C 10,7 C 4,1 km/h (1 Bft) 99 %
25.04.2019 03:40 10,8 C 92 % 1005,4 hPa 0,0 l/m 2,3 km/h (1 Bft) S-SO 155 9,6 C 10,8 C 10,3 km/h (2 Bft) 99 %
25.04.2019 03:30 10,8 C 92 % 1005,2 hPa 0,0 l/m 1,1 km/h (1 Bft) S 179 9,6 C 10,8 C 4,1 km/h (1 Bft) 100 %
25.04.2019 03:20 10,9 C 92 % 1005,4 hPa 0,0 l/m 1,8 km/h (1 Bft) S 179 9,7 C 10,9 C 8,2 km/h (2 Bft) 100 %
25.04.2019 03:10 10,9 C 92 % 1005,6 hPa 0,0 l/m 3,1 km/h (1 Bft) S 178 9,7 C 10,9 C 8,2 km/h (2 Bft) 100 %
25.04.2019 03:00 10,9 C 92 % 1005,4 hPa 0,0 l/m 3,3 km/h (1 Bft) S-SW 202 9,7 C 10,9 C 12,4 km/h (3 Bft) 100 %
25.04.2019 02:50 11,0 C 92 % 1005,2 hPa 0,0 l/m 5,3 km/h (1 Bft) S-SW 192 9,8 C 11,0 C 14,4 km/h (3 Bft) 100 %
25.04.2019 02:40 11,1 C 93 % 1005,5 hPa 0,0 l/m 8,0 km/h (2 Bft) S-SW 196 10,0 C 10,0 C 24,7 km/h (4 Bft) 100 %
25.04.2019 02:30 11,2 C 93 % 1005,6 hPa 0,0 l/m 8,8 km/h (2 Bft) S-SW 195 10,1 C 9,6 C 20,6 km/h (4 Bft) 100 %
25.04.2019 02:20 11,2 C 93 % 1005,5 hPa 0,0 l/m 9,6 km/h (2 Bft) S 191 10,1 C 9,1 C 22,7 km/h (4 Bft) 100 %
25.04.2019 02:10 11,3 C 93 % 1005,5 hPa 0,0 l/m 8,6 km/h (2 Bft) S-SW 196 10,2 C 9,8 C 30,9 km/h (5 Bft) 100 %
25.04.2019 02:00 11,4 C 93 % 1005,5 hPa 0,0 l/m 13,1 km/h (3 Bft) S 171 10,3 C 7,6 C 33,0 km/h (5 Bft) 98 %
25.04.2019 01:50 11,6 C 93 % 1005,5 hPa 0,0 l/m 12,5 km/h (3 Bft) O-SO 117 10,5 C 8,1 C 24,7 km/h (4 Bft) 99 %
25.04.2019 01:40 11,7 C 94 % 1005,2 hPa 0,0 l/m 10,3 km/h (2 Bft) S 182 10,8 C 9,3 C 22,7 km/h (4 Bft) 100 %
25.04.2019 01:30 11,7 C 93 % 1004,7 hPa 0,0 l/m 6,5 km/h (2 Bft) S 181 10,6 C 11,7 C 14,4 km/h (3 Bft) 100 %
25.04.2019 01:20 11,7 C 93 % 1004,2 hPa 0,0 l/m 4,8 km/h (1 Bft) S-SW 195 10,6 C 11,7 C 10,3 km/h (2 Bft) 100 %
25.04.2019 01:10 11,8 C 93 % 1003,7 hPa 0,0 l/m 3,1 km/h (1 Bft) S 174 10,7 C 11,8 C 10,3 km/h (2 Bft) 100 %
25.04.2019 01:00 11,8 C 93 % 1003,7 hPa 0,4 l/m 0,5 km/h (0 Bft) SO 138 10,7 C 11,8 C 4,1 km/h (1 Bft) 100 %
25.04.2019 00:50 11,8 C 92 % 1004,8 hPa 0,6 l/m 4,7 km/h (1 Bft) SW 216 10,5 C 11,8 C 16,5 km/h (3 Bft) 99 %
25.04.2019 00:40 11,9 C 92 % 1004,9 hPa 0,6 l/m 4,7 km/h (1 Bft) S 172 10,6 C 11,9 C 14,4 km/h (3 Bft) 100 %
25.04.2019 00:30 12,1 C 91 % 1004,6 hPa 0,0 l/m 7,9 km/h (2 Bft) S 182 10,7 C 11,1 C 20,6 km/h (4 Bft) 98 %
25.04.2019 00:20 12,1 C 91 % 1003,8 hPa 0,0 l/m 8,2 km/h (2 Bft) SW 231 10,7 C 10,9 C 24,7 km/h (4 Bft) 100 %
25.04.2019 00:10 12,3 C 90 % 1004,1 hPa 0,0 l/m 11,8 km/h (2 Bft) S-SW 208 10,7 C 9,3 C 22,7 km/h (4 Bft) 99 %
25.04.2019 00:00 12,6 C 88 % 1003,6 hPa 0,4 l/m 9,6 km/h (2 Bft) SW 220 10,7 C 10,7 C 24,7 km/h (4 Bft) 100 %
24.04.2019 23:50 12,9 C 86 % 1003,9 hPa 0,4 l/m 15,2 km/h (3 Bft) S 189 10,6 C 8,6 C 35,0 km/h (5 Bft) 100 %
24.04.2019 23:40 13,1 C 87 % 1004,3 hPa 0,0 l/m 13,5 km/h (3 Bft) S-SW 207 11,0 C 9,5 C 28,8 km/h (4 Bft) 100 %
24.04.2019 23:30 13,2 C 87 % 1004,0 hPa 0,0 l/m 17,1 km/h (3 Bft) SW 219 11,1 C 8,3 C 30,9 km/h (5 Bft) 98 %
24.04.2019 23:20 13,3 C 87 % 1003,7 hPa 0,0 l/m 15,2 km/h (3 Bft) SW 235 11,2 C 9,1 C 37,1 km/h (5 Bft) 98 %
24.04.2019 23:10 13,7 C 86 % 1003,6 hPa 0,2 l/m 20,4 km/h (4 Bft) S-SW 209 11,4 C 8,0 C 41,2 km/h (6 Bft) 99 %
24.04.2019 23:00 14,2 C 81 % 1003,0 hPa 0,0 l/m 20,1 km/h (4 Bft) W-SW 240 11,0 C 8,7 C 43,3 km/h (6 Bft) 99 %
24.04.2019 22:50 14,4 C 81 % 1002,8 hPa 0,0 l/m 22,0 km/h (4 Bft) SW 214 11,2 C 8,5 C 47,4 km/h (6 Bft) 99 %
24.04.2019 22:40 14,7 C 81 % 1002,5 hPa 0,0 l/m 23,1 km/h (4 Bft) S 184 11,5 C 8,6 C 41,2 km/h (6 Bft) 100 %
24.04.2019 22:30 15,2 C 80 % 1002,2 hPa 0,0 l/m 23,4 km/h (4 Bft) S-SW 198 11,8 C 9,2 C 53,6 km/h (7 Bft) 100 %
24.04.2019 22:20 15,9 C 77 % 1002,0 hPa 0,0 l/m 25,1 km/h (4 Bft) S-SW 213 11,9 C 9,8 C 57,7 km/h (7 Bft) 99 %
24.04.2019 22:10 16,9 C 73 % 1001,8 hPa 0,0 l/m 23,6 km/h (4 Bft) SW 227 12,0 C 11,4 C 51,5 km/h (7 Bft) 99 %
24.04.2019 22:00 18,8 C 66 % 1001,4 hPa 0,0 l/m 25,2 km/h (4 Bft) S 190 12,3 C 13,7 C 49,4 km/h (6 Bft) 100 %
24.04.2019 21:50 21,4 C 57 % 1000,0 hPa 0,0 l/m 6,7 km/h (2 Bft) S-SW 200 12,5 C 21,3 C 20,6 km/h (4 Bft) 100 %
24.04.2019 21:40 21,6 C 57 % 999,6 hPa 0,0 l/m 7,3 km/h (2 Bft) O-SO 115 12,7 C 21,3 C 16,5 km/h (3 Bft) 97 %
24.04.2019 21:30 21,6 C 57 % 999,6 hPa 0,0 l/m 7,6 km/h (2 Bft) O 90 12,7 C 21,2 C 18,5 km/h (3 Bft) 98 %
24.04.2019 21:20 21,7 C 56 % 999,7 hPa 0,0 l/m 7,4 km/h (2 Bft) O-SO 120 12,5 C 21,3 C 20,6 km/h (4 Bft) 98 %
24.04.2019 21:10 21,8 C 56 % 999,6 hPa 0,0 l/m 6,3 km/h (2 Bft) O-NO 74 12,6 C 21,8 C 20,6 km/h (4 Bft) 98 %
24.04.2019 21:00 21,9 C 55 % 999,4 hPa 0,0 l/m 6,5 km/h (2 Bft) SO 140 12,4 C 21,9 C 16,5 km/h (3 Bft) 99 %
24.04.2019 20:50 22,2 C 54 % 999,4 hPa 0,0 l/m 8,6 km/h (2 Bft) O 92 12,4 C 21,5 C 20,6 km/h (4 Bft) 100 %
24.04.2019 20:40 22,3 C 53 % 999,4 hPa 0,0 l/m 7,8 km/h (2 Bft) O-SO 120 12,2 C 21,8 C 22,7 km/h (4 Bft) 99 %
24.04.2019 20:30 22,7 C 52 % 999,4 hPa 0,0 l/m 8,1 km/h (2 Bft) SO 127 12,3 C 22,2 C 20,6 km/h (4 Bft) 99 %
24.04.2019 20:20 23,1 C 49 % 999,2 hPa 0,0 l/m 9,5 km/h (2 Bft) O-SO 114 11,8 C 22,2 C 20,6 km/h (4 Bft) 99 %
24.04.2019 20:10 23,6 C 48 % 999,1 hPa 0,0 l/m 9,0 km/h (2 Bft) SO 138 11,9 C 22,9 C 24,7 km/h (4 Bft) 98 %
24.04.2019 20:00 24,1 C 46 % 999,1 hPa 0,0 l/m 11,3 km/h (2 Bft) O-SO 120 11,7 C 22,9 C 26,8 km/h (4 Bft) 99 %
24.04.2019 19:50 24,7 C 44 % 999,1 hPa 0,0 l/m 10,6 km/h (2 Bft) O 91 11,6 C 23,7 C 30,9 km/h (5 Bft) 98 %
24.04.2019 19:40 25,2 C 43 % 999,2 hPa 0,0 l/m 8,5 km/h (2 Bft) O-SO 108 11,7 C 24,7 C 24,7 km/h (4 Bft) 99 %
24.04.2019 19:30 25,5 C 42 % 999,2 hPa 0,0 l/m 9,3 km/h (2 Bft) O 95 11,6 C 24,9 C 20,6 km/h (4 Bft) 99 %
24.04.2019 19:20 25,8 C 40 % 999,2 hPa 0,0 l/m 6,8 km/h (2 Bft) O 91 11,2 C 25,7 C 22,7 km/h (4 Bft) 98 %
24.04.2019 19:10 26,0 C 40 % 999,2 hPa 0,0 l/m 7,3 km/h (2 Bft) SO 132 11,3 C 25,8 C 20,6 km/h (4 Bft) 100 %
24.04.2019 19:00 26,0 C 40 % 999,4 hPa 0,0 l/m 6,8 km/h (2 Bft) O-SO 110 11,3 C 25,9 C 18,5 km/h (3 Bft) 100 %
24.04.2019 18:50 26,1 C 38 % 999,4 hPa 0,0 l/m 5,8 km/h (2 Bft) SO 134 10,7 C 26,1 C 26,8 km/h (4 Bft) 99 %
24.04.2019 18:40 26,1 C 36 % 999,3 hPa 0,0 l/m 7,0 km/h (2 Bft) O-SO 113 9,8 C 26,0 C 24,7 km/h (4 Bft) 98 %
24.04.2019 18:30 25,9 C 36 % 999,3 hPa 0,0 l/m 5,4 km/h (1 Bft) O-SO 123 9,7 C 25,9 C 18,5 km/h (3 Bft) 100 %
24.04.2019 18:20 26,2 C 35 % 999,3 hPa 0,0 l/m 5,9 km/h (2 Bft) S-SW 209 9,5 C 26,2 C 22,7 km/h (4 Bft) 99 %
24.04.2019 18:10 26,4 C 35 % 999,3 hPa 0,0 l/m 6,4 km/h (2 Bft) SW 217 9,7 C 26,4 C 24,7 km/h (4 Bft) 97 %
24.04.2019 18:00 26,2 C 36 % 999,3 hPa 0,0 l/m 6,6 km/h (2 Bft) O-SO 109 9,9 C 26,2 C 18,5 km/h (3 Bft) 99 %
24.04.2019 17:50 26,1 C 36 % 999,3 hPa 0,0 l/m 7,1 km/h (2 Bft) S-SW 199 9,8 C 25,9 C 24,7 km/h (4 Bft) 99 %
24.04.2019 17:40 26,1 C 36 % 999,4 hPa 0,0 l/m 5,8 km/h (2 Bft) O-SO 119 9,8 C 26,1 C 26,8 km/h (4 Bft) 98 %
24.04.2019 17:30 25,9 C 36 % 999,5 hPa 0,0 l/m 7,3 km/h (2 Bft) O 96 9,7 C 25,7 C 22,7 km/h (4 Bft) 100 %
24.04.2019 17:20 26,1 C 37 % 999,6 hPa 0,0 l/m 7,9 km/h (2 Bft) S 186 10,3 C 25,8 C 24,7 km/h (4 Bft) 100 %
24.04.2019 17:10 26,3 C 37 % 999,6 hPa 0,0 l/m 7,0 km/h (2 Bft) S 185 10,4 C 26,2 C 24,7 km/h (4 Bft) 98 %
24.04.2019 17:00 26,3 C 36 % 999,7 hPa 0,0 l/m 7,3 km/h (2 Bft) S-SW 198 10,0 C 26,1 C 26,8 km/h (4 Bft) 99 %
24.04.2019 16:50 26,6 C 36 % 999,6 hPa 0,0 l/m 8,3 km/h (2 Bft) O-SO 104 10,3 C 26,2 C 26,8 km/h (4 Bft) 98 %
24.04.2019 16:40 26,6 C 36 % 999,8 hPa 0,0 l/m 8,5 km/h (2 Bft) O-SO 115 10,3 C 26,2 C 30,9 km/h (5 Bft) 99 %
24.04.2019 16:30 26,7 C 35 % 999,8 hPa 0,0 l/m 8,7 km/h (2 Bft) SO 133 10,0 C 26,3 C 28,8 km/h (4 Bft) 99 %
24.04.2019 16:20 26,7 C 37 % 999,8 hPa 0,0 l/m 8,4 km/h (2 Bft) S 173 10,8 C 26,3 C 35,0 km/h (5 Bft) 98 %
24.04.2019 16:10 26,4 C 37 % 999,9 hPa 0,0 l/m 12,0 km/h (2 Bft) SO 136 10,5 C 25,4 C 41,2 km/h (6 Bft) 98 %
24.04.2019 16:00 26,3 C 36 % 1000,1 hPa 0,0 l/m 10,6 km/h (2 Bft) S-SW 200 10,0 C 25,5 C 28,8 km/h (4 Bft) 97 %
_ Min-Zeit 06:30 16:30 19:50 - 05:40 - - 06:30 02:00 01:00 18:10
Minimum _ 8,9 C 35 % 999,1 hPa - 0,3 km/h (0 Bft) - - 7,8 C 7,6 C 4,1 km/h (1 Bft) 97 %
_ Max-Zeit 16:20 01:40 11:10 00:40 22:00 - - 21:30 18:10 22:20 18:30
Maximum _ 26,7 C 94 % 1007,8 hPa 0,6 l/m 25,2 km/h
S (4 Bft)
- - 12,7 C 26,4 C 57,7 km/h
S-SO (7 Bft)
100 %
Durchschnitt _ 17,0 C 67 % 1003,9 hPa #2,6 l/m 8,5 km/h (2 Bft) S - 9,8 C 15,8 C 23,4 km/h (4 Bft) 99 %